createdAt,value
2018-04-08T00:01:24.569Z,30.90
2018-04-08T00:04:27.677Z,30.80
2018-04-08T00:07:30.815Z,30.90
2018-04-08T00:10:33.944Z,30.90
2018-04-08T00:13:37.797Z,31.10
2018-04-08T00:16:40.914Z,31.20
2018-04-08T00:19:44.005Z,30.60
2018-04-08T00:22:47.120Z,30.80
2018-04-08T00:25:50.241Z,30.90
2018-04-08T00:28:53.333Z,30.90
2018-04-08T00:31:56.448Z,31.00
2018-04-08T00:34:59.562Z,30.80
2018-04-08T00:38:02.689Z,30.80
2018-04-08T00:41:05.806Z,30.70
2018-04-08T00:44:08.966Z,30.70
2018-04-08T00:47:12.091Z,30.70
2018-04-08T00:50:15.182Z,30.70
2018-04-08T00:53:18.295Z,30.70
2018-04-08T00:56:21.405Z,30.70
2018-04-08T00:59:24.491Z,30.70
2018-04-08T01:02:28.384Z,30.60
2018-04-08T01:05:31.476Z,30.60
2018-04-08T01:08:34.598Z,30.50
2018-04-08T01:11:37.716Z,30.60
2018-04-08T01:14:40.809Z,31.30
2018-04-08T01:17:43.956Z,31.70
2018-04-08T01:20:47.815Z,31.80
2018-04-08T01:23:50.934Z,31.70
2018-04-08T01:26:54.061Z,31.80
2018-04-08T01:29:57.175Z,31.70
2018-04-08T01:33:00.314Z,31.70
2018-04-08T01:36:04.178Z,31.60
2018-04-08T01:39:07.285Z,31.60
2018-04-08T01:42:10.401Z,31.60
2018-04-08T01:45:13.494Z,31.60
2018-04-08T01:48:16.614Z,31.60
2018-04-08T01:51:19.704Z,31.50
2018-04-08T01:54:22.827Z,31.50
2018-04-08T01:57:25.933Z,31.60
2018-04-08T02:00:30.153Z,31.70
2018-04-08T02:03:33.274Z,31.70
2018-04-08T02:06:36.397Z,31.70
2018-04-08T02:09:39.493Z,32.60
2018-04-08T02:12:42.633Z,32.30
2018-04-08T02:15:45.753Z,32.80
2018-04-08T02:18:48.874Z,32.40
2018-04-08T02:21:52.761Z,32.10
2018-04-08T02:24:55.855Z,32.10
2018-04-08T02:27:58.987Z,32.10
2018-04-08T02:31:02.101Z,32.00
2018-04-08T02:34:05.229Z,31.90
2018-04-08T02:37:09.114Z,31.80
2018-04-08T02:40:12.222Z,31.70
2018-04-08T02:43:15.337Z,31.80
2018-04-08T02:46:18.428Z,32.00
2018-04-08T02:49:21.559Z,32.10
2018-04-08T02:52:24.674Z,32.20
2018-04-08T02:55:29.306Z,32.30
2018-04-08T02:58:32.433Z,32.20
2018-04-08T03:01:36.296Z,32.40
2018-04-08T03:04:39.443Z,32.30
2018-04-08T03:07:42.559Z,32.50
2018-04-08T03:10:45.655Z,32.40
2018-04-08T03:13:48.777Z,32.20
2018-04-08T03:16:51.871Z,32.30
2018-04-08T03:19:54.989Z,32.20
2018-04-08T03:22:58.170Z,32.40
2018-04-08T03:26:01.287Z,32.40
2018-04-08T03:29:04.414Z,32.50
2018-04-08T03:32:07.532Z,32.50
2018-04-08T03:35:10.660Z,32.50
2018-04-08T03:38:14.546Z,32.30
2018-04-08T03:41:17.646Z,32.30
2018-04-08T03:44:20.782Z,32.20
2018-04-08T03:47:23.888Z,32.10
2018-04-08T03:50:27.044Z,32.90
2018-04-08T03:53:30.168Z,32.00
2018-04-08T03:56:33.269Z,32.00
2018-04-08T03:59:36.390Z,31.90
2018-04-08T04:02:39.526Z,31.90
2018-04-08T04:05:42.627Z,32.00
2018-04-08T04:08:45.755Z,32.50
2018-04-08T04:11:49.625Z,32.70
2018-04-08T04:14:52.760Z,32.70
2018-04-08T04:17:55.901Z,32.60
2018-04-08T04:21:10.965Z,32.70
2018-04-08T04:27:52.383Z,32.90
2018-04-08T04:30:55.516Z,33.10
2018-04-08T04:33:59.133Z,33.20
2018-04-08T04:37:02.361Z,33.50
2018-04-08T04:40:06.271Z,34.20
2018-04-08T04:43:09.410Z,33.50
2018-04-08T04:46:13.295Z,33.30
2018-04-08T04:49:16.431Z,33.30
2018-04-08T04:52:20.311Z,33.80
2018-04-08T04:55:23.425Z,33.70
2018-04-08T04:58:26.558Z,33.50
2018-04-08T05:01:29.655Z,33.40
2018-04-08T05:04:32.874Z,33.40
2018-04-08T05:07:35.969Z,33.30
2018-04-08T05:10:39.097Z,33.40
2018-04-08T05:13:42.217Z,33.30
2018-04-08T05:16:46.085Z,33.30
2018-04-08T05:19:49.198Z,33.30
2018-04-08T05:22:52.289Z,33.40
2018-04-08T05:25:55.411Z,33.30
2018-04-08T05:28:58.569Z,33.10
2018-04-08T05:32:02.482Z,33.10
2018-04-08T05:35:05.613Z,33.10
2018-04-08T05:38:09.482Z,33.10
2018-04-08T05:41:12.650Z,33.00
2018-04-08T05:44:16.537Z,33.20
2018-04-08T05:47:19.627Z,33.80
2018-04-08T05:50:22.754Z,33.20
2018-04-08T05:53:25.846Z,33.30
2018-04-08T05:56:28.989Z,33.30
2018-04-08T05:59:32.891Z,33.20
2018-04-08T06:02:35.976Z,33.20
2018-04-08T06:05:39.088Z,33.10
2018-04-08T06:08:42.182Z,33.10
2018-04-08T06:11:45.298Z,33.10
2018-04-08T06:14:48.421Z,33.20
2018-04-08T06:17:51.519Z,33.00
2018-04-08T06:20:54.643Z,33.00
2018-04-08T06:23:57.754Z,33.30
2018-04-08T06:27:00.882Z,33.50
2018-04-08T06:30:04.025Z,33.60
2018-04-08T06:33:07.117Z,33.70
2018-04-08T06:36:11.013Z,33.50
2018-04-08T06:39:14.138Z,33.50
2018-04-08T06:42:18.028Z,33.60
2018-04-08T06:45:21.145Z,33.60
2018-04-08T06:48:24.266Z,33.70
2018-04-08T06:51:27.504Z,33.70
2018-04-08T06:54:31.418Z,34.30
2018-04-08T06:57:35.292Z,34.50
2018-04-08T07:00:38.411Z,34.40
2018-04-08T07:03:41.525Z,34.60
2018-04-08T07:06:44.638Z,34.50
2018-04-08T07:09:47.769Z,34.80
2018-04-08T07:12:51.620Z,35.10
2018-04-08T07:15:54.736Z,34.50
2018-04-08T07:18:57.898Z,34.40
2018-04-08T07:22:01.143Z,34.30
2018-04-08T07:25:04.346Z,34.30
2018-04-08T07:28:08.282Z,34.10
2018-04-08T07:31:11.403Z,34.00
2018-04-08T07:34:14.503Z,34.00
2018-04-08T07:37:17.627Z,34.00
2018-04-08T07:40:20.768Z,34.30
2018-04-08T07:43:23.885Z,34.10
2018-04-08T07:46:27.041Z,34.10
2018-04-08T07:49:30.166Z,34.10
2018-04-08T07:52:33.286Z,34.20
2018-04-08T07:55:36.412Z,34.20
2018-04-08T07:58:39.517Z,34.40
2018-04-08T08:01:44.168Z,35.30
2018-04-08T08:04:47.252Z,35.30
2018-04-08T08:07:50.377Z,35.50
2018-04-08T08:10:53.501Z,35.70
2018-04-08T08:13:56.636Z,35.70
2018-04-08T08:16:59.801Z,36.00
2018-04-08T08:20:03.150Z,35.70
2018-04-08T08:23:07.012Z,35.90
2018-04-08T08:26:10.125Z,35.80
2018-04-08T08:29:13.220Z,35.80
2018-04-08T08:32:16.353Z,36.30
2018-04-08T08:35:19.477Z,36.40
2018-04-08T08:38:22.584Z,36.50
2018-04-08T08:41:25.718Z,36.30
2018-04-08T08:44:29.589Z,36.70
2018-04-08T08:47:32.743Z,36.60
2018-04-08T08:50:35.857Z,36.50
2018-04-08T08:53:39.727Z,35.80
2018-04-08T08:56:42.870Z,35.70
2018-04-08T08:59:45.987Z,35.80
2018-04-08T09:02:49.881Z,35.40
2018-04-08T09:05:53.007Z,35.70
2018-04-08T09:08:56.102Z,35.80
2018-04-08T09:11:59.231Z,35.90
2018-04-08T09:15:02.341Z,36.80
2018-04-08T09:18:05.480Z,37.00
2018-04-08T09:24:38.322Z,36.80
2018-04-08T09:27:41.445Z,36.90
2018-04-08T09:30:44.566Z,37.00
2018-04-08T09:33:47.664Z,37.40
2018-04-08T09:36:50.789Z,37.80
2018-04-08T09:39:53.885Z,38.70
2018-04-08T09:42:57.046Z,38.40
2018-04-08T09:46:00.958Z,38.40
2018-04-08T09:49:04.064Z,38.10
2018-04-08T09:52:07.199Z,39.10
2018-04-08T09:55:11.075Z,38.20
2018-04-08T09:58:14.222Z,38.10
2018-04-08T10:01:23.575Z,37.90
2018-04-08T10:04:27.458Z,37.70
2018-04-08T10:07:30.609Z,37.70
2018-04-08T10:10:34.486Z,37.50
2018-04-08T10:13:37.615Z,37.50
2018-04-08T10:16:40.740Z,37.20
2018-04-08T10:19:43.850Z,38.10
2018-04-08T10:22:46.964Z,37.30
2018-04-08T10:25:50.062Z,37.20
2018-04-08T10:28:53.202Z,37.20
2018-04-08T10:31:56.327Z,37.10
2018-04-08T10:34:59.500Z,37.40
2018-04-08T10:38:03.353Z,37.10
2018-04-08T10:41:06.758Z,37.20
2018-04-08T10:44:10.654Z,37.50
2018-04-08T10:47:13.795Z,37.40
2018-04-08T10:50:16.907Z,37.50
2018-04-08T10:53:20.034Z,37.40
2018-04-08T10:56:23.126Z,37.20
2018-04-08T10:59:26.256Z,37.30
2018-04-08T11:02:29.431Z,37.30
2018-04-08T11:05:33.318Z,37.20
2018-04-08T11:08:36.440Z,37.20
2018-04-08T11:11:39.541Z,37.30
2018-04-08T11:14:42.667Z,37.20
2018-04-08T11:17:46.558Z,36.80
2018-04-08T11:20:49.658Z,36.80
2018-04-08T11:23:52.789Z,36.80
2018-04-08T11:26:55.882Z,36.80
2018-04-08T11:29:59.082Z,36.80
2018-04-08T11:33:02.205Z,36.70
2018-04-08T11:36:05.413Z,36.80
2018-04-08T11:39:08.547Z,37.10
2018-04-08T11:42:12.486Z,36.80
2018-04-08T11:45:16.401Z,36.80
2018-04-08T11:48:20.290Z,37.30
2018-04-08T11:51:23.409Z,36.70
2018-04-08T11:54:26.530Z,36.80
2018-04-08T11:57:29.639Z,36.80
2018-04-08T12:00:32.775Z,36.80
2018-04-08T12:03:36.659Z,37.30
2018-04-08T12:06:39.755Z,37.30
2018-04-08T12:09:42.879Z,37.10
2018-04-08T12:12:45.988Z,37.40
2018-04-08T12:15:49.109Z,37.30
2018-04-08T12:18:52.235Z,37.10
2018-04-08T12:21:56.118Z,37.20
2018-04-08T12:24:59.260Z,37.20
2018-04-08T12:28:02.461Z,37.20
2018-04-08T12:31:05.595Z,37.20
2018-04-08T12:34:08.826Z,37.70
2018-04-08T12:37:11.939Z,37.30
2018-04-08T12:40:15.084Z,37.20
2018-04-08T12:43:18.203Z,37.30
2018-04-08T12:46:22.099Z,37.30
2018-04-08T12:49:25.230Z,37.30
2018-04-08T12:52:28.385Z,37.30
2018-04-08T12:55:31.577Z,37.30
2018-04-08T12:58:35.449Z,37.20
2018-04-08T13:01:38.578Z,37.20
2018-04-08T13:04:41.715Z,37.20
2018-04-08T13:07:45.629Z,37.30
2018-04-08T13:10:48.749Z,37.30
2018-04-08T13:13:52.672Z,37.00
2018-04-08T13:16:56.585Z,37.00
2018-04-08T13:20:00.504Z,36.90
2018-04-08T13:23:03.630Z,36.80
2018-04-08T13:26:07.534Z,37.10
2018-04-08T13:29:11.416Z,36.80
2018-04-08T13:32:14.546Z,36.80
2018-04-08T13:35:17.679Z,36.90
2018-04-08T13:38:20.791Z,36.80
2018-04-08T13:41:23.926Z,36.80
2018-04-08T13:44:27.804Z,36.80
2018-04-08T13:47:30.945Z,36.80
2018-04-08T13:50:34.090Z,37.00
2018-04-08T13:53:37.202Z,36.90
2018-04-08T13:56:40.349Z,36.80
2018-04-08T13:59:43.468Z,36.90
2018-04-08T14:02:46.609Z,36.70
2018-04-08T14:05:49.730Z,36.90
2018-04-08T14:08:52.843Z,36.70
2018-04-08T14:11:55.961Z,36.80
2018-04-08T14:14:59.119Z,36.80
2018-04-08T14:18:03.028Z,37.60
2018-04-08T14:21:06.147Z,36.90
2018-04-08T14:24:09.277Z,37.00
2018-04-08T14:27:12.402Z,36.90
2018-04-08T14:30:15.498Z,36.80
2018-04-08T14:33:18.621Z,36.80
2018-04-08T14:36:21.742Z,36.80
2018-04-08T14:39:24.841Z,36.80
2018-04-08T14:42:27.973Z,36.70
2018-04-08T14:45:31.141Z,36.70
2018-04-08T14:48:34.278Z,36.70
2018-04-08T14:51:37.406Z,36.60
2018-04-08T14:54:40.548Z,36.60
2018-04-08T14:57:44.442Z,36.70
2018-04-08T15:00:47.547Z,36.60
2018-04-08T15:03:50.662Z,36.60
2018-04-08T15:06:53.802Z,36.50
2018-04-08T15:09:57.679Z,36.30
2018-04-08T15:13:00.837Z,36.30
2018-04-08T15:16:04.725Z,36.30
2018-04-08T15:19:07.820Z,36.30
2018-04-08T15:22:10.982Z,36.30
2018-04-08T15:25:14.083Z,36.30
2018-04-08T15:28:17.971Z,36.40
2018-04-08T15:31:21.090Z,36.30
2018-04-08T15:34:24.184Z,36.40
2018-04-08T15:37:27.426Z,36.30
2018-04-08T15:40:31.311Z,36.30
2018-04-08T15:43:34.438Z,36.30
2018-04-08T15:46:37.561Z,36.30
2018-04-08T15:49:40.703Z,37.00
2018-04-08T15:52:43.822Z,37.10
2018-04-08T15:55:46.948Z,37.10
2018-04-08T15:58:50.075Z,37.10
2018-04-08T16:01:53.201Z,37.10
2018-04-08T16:04:56.315Z,37.90
2018-04-08T16:07:59.451Z,37.50
2018-04-08T16:11:02.574Z,38.30
2018-04-08T16:14:05.703Z,38.50
2018-04-08T16:17:08.859Z,38.50
2018-04-08T16:20:12.746Z,38.90
2018-04-08T16:23:15.923Z,38.90
2018-04-08T16:26:19.028Z,39.10
2018-04-08T16:29:22.155Z,38.90
2018-04-08T16:32:25.283Z,39.00
2018-04-08T16:35:29.030Z,38.90
2018-04-08T16:38:32.186Z,38.60
2018-04-08T16:41:36.461Z,38.60
2018-04-08T16:44:39.612Z,38.30
2018-04-08T16:47:42.772Z,38.10
2018-04-08T16:50:45.946Z,37.80
2018-04-08T16:53:49.060Z,37.70
2018-04-08T16:56:52.149Z,37.60
2018-04-08T16:59:55.281Z,37.80
2018-04-08T17:02:58.437Z,38.00
2018-04-08T17:06:02.415Z,38.40
2018-04-08T17:09:05.548Z,38.40
2018-04-08T17:12:08.651Z,38.50
2018-04-08T17:15:11.809Z,38.50
2018-04-08T17:18:14.940Z,38.30
2018-04-08T17:21:18.043Z,38.30
2018-04-08T17:24:21.166Z,38.50
2018-04-08T17:27:24.269Z,38.50
2018-04-08T17:30:27.459Z,38.10
2018-04-08T17:33:30.638Z,38.00
2018-04-08T17:36:34.530Z,38.10
2018-04-08T17:39:37.654Z,38.10
2018-04-08T17:42:40.758Z,38.30
2018-04-08T17:45:43.885Z,38.10
2018-04-08T17:48:47.773Z,38.80
2018-04-08T17:51:50.879Z,38.10
2018-04-08T17:54:54.024Z,38.80
2018-04-08T17:57:58.033Z,38.70
2018-04-08T18:01:01.211Z,38.10
2018-04-08T18:04:04.410Z,37.70
2018-04-08T18:07:07.508Z,37.70
2018-04-08T18:10:10.639Z,37.60
2018-04-08T18:13:13.749Z,37.60
2018-04-08T18:16:16.877Z,37.70
2018-04-08T18:19:20.002Z,37.50
2018-04-08T18:22:23.096Z,37.60
2018-04-08T18:25:26.221Z,37.40
2018-04-08T18:28:29.317Z,37.50
2018-04-08T18:31:32.433Z,37.50
2018-04-08T18:34:35.527Z,37.50
2018-04-08T18:37:38.642Z,37.60
2018-04-08T18:40:41.762Z,37.50
2018-04-08T18:43:44.854Z,37.70
2018-04-08T18:46:47.977Z,37.70
2018-04-08T18:49:51.076Z,38.40
2018-04-08T18:52:54.203Z,37.90
2018-04-08T18:55:58.247Z,39.00
2018-04-08T18:59:01.362Z,38.90
2018-04-08T19:02:04.566Z,39.40
2018-04-08T19:05:08.435Z,39.10
2018-04-08T19:08:11.575Z,39.10
2018-04-08T19:11:14.702Z,38.80
2018-04-08T19:14:18.583Z,38.40
2018-04-08T19:17:27.143Z,38.40
2018-04-08T19:20:31.065Z,38.50
2018-04-08T19:23:34.189Z,38.40
2018-04-08T19:26:38.091Z,38.50
2018-04-08T19:29:41.208Z,38.50
2018-04-08T19:32:44.343Z,38.60
2018-04-08T19:35:48.265Z,38.70
2018-04-08T19:38:52.137Z,38.80
2018-04-08T19:41:55.277Z,38.80
2018-04-08T19:44:58.422Z,39.10
2018-04-08T19:48:01.578Z,39.00
2018-04-08T19:51:04.776Z,38.80
2018-04-08T19:54:07.883Z,38.90
2018-04-08T19:57:11.042Z,38.80
2018-04-08T20:00:14.992Z,38.80
2018-04-08T20:03:18.123Z,38.80
2018-04-08T20:06:21.259Z,39.00
2018-04-08T20:09:24.402Z,39.00
2018-04-08T20:12:27.567Z,39.80
2018-04-08T20:15:30.769Z,39.80
2018-04-08T20:18:33.905Z,39.60
2018-04-08T20:21:37.045Z,39.70
2018-04-08T20:24:40.150Z,40.10
2018-04-08T20:27:43.290Z,39.80
2018-04-08T20:30:46.535Z,39.80
2018-04-08T20:33:49.674Z,39.80
2018-04-08T20:36:52.833Z,39.80
2018-04-08T20:39:55.948Z,39.70
2018-04-08T20:42:59.894Z,39.50
2018-04-08T20:46:03.329Z,39.40
2018-04-08T20:49:06.534Z,39.50
2018-04-08T20:52:09.696Z,39.40
2018-04-08T20:55:12.798Z,39.40
2018-04-08T20:58:15.954Z,39.30
2018-04-08T21:01:19.823Z,39.80
2018-04-08T21:04:22.937Z,39.80
2018-04-08T21:07:26.080Z,40.00
2018-04-08T21:10:29.204Z,40.00
2018-04-08T21:13:33.122Z,40.10
2018-04-08T21:16:36.998Z,40.80
2018-04-08T21:19:40.154Z,40.10
2018-04-08T21:22:43.253Z,40.30
2018-04-08T21:25:46.493Z,40.70
2018-04-08T21:28:51.454Z,39.80
2018-04-08T21:31:55.457Z,39.80
2018-04-08T21:34:58.646Z,39.90
2018-04-08T21:38:01.787Z,40.60
2018-04-08T21:41:05.796Z,40.80
2018-04-08T21:44:09.748Z,40.70
2018-04-08T21:47:13.613Z,40.90
2018-04-08T21:50:16.732Z,40.90
2018-04-08T21:53:19.859Z,40.80
2018-04-08T21:56:22.998Z,40.50
2018-04-08T21:59:27.717Z,40.10
2018-04-08T22:02:32.109Z,40.30
2018-04-08T22:05:36.161Z,40.20
2018-04-08T22:08:39.267Z,40.20
2018-04-08T22:11:42.390Z,40.30
2018-04-08T22:14:47.022Z,40.20
2018-04-08T22:17:50.134Z,40.30
2018-04-08T22:20:53.289Z,40.30
2018-04-08T22:23:56.394Z,40.30
2018-04-08T22:27:00.306Z,40.30
2018-04-08T22:30:04.271Z,40.40
2018-04-08T22:33:07.373Z,40.40
2018-04-08T22:36:10.499Z,40.40
2018-04-08T22:39:13.619Z,40.10
2018-04-08T22:42:16.746Z,40.10
2018-04-08T22:45:19.896Z,40.20
2018-04-08T22:48:23.038Z,40.30
2018-04-08T22:51:26.164Z,40.10
2018-04-08T22:54:29.299Z,40.50
2018-04-08T22:57:33.216Z,40.80
2018-04-08T23:00:36.342Z,40.70
2018-04-08T23:03:40.211Z,40.40
2018-04-08T23:06:43.343Z,40.40
2018-04-08T23:09:46.537Z,40.40
2018-04-08T23:12:49.666Z,40.70
2018-04-08T23:15:52.814Z,40.60
2018-04-08T23:18:56.093Z,40.50
2018-04-08T23:22:00.024Z,41.10
2018-04-08T23:25:03.132Z,40.50
2018-04-08T23:28:06.272Z,40.60
2018-04-08T23:31:09.397Z,40.40
2018-04-08T23:34:12.501Z,40.60
2018-04-08T23:37:15.635Z,40.60
2018-04-08T23:40:18.739Z,40.80
2018-04-08T23:43:21.861Z,40.80
2018-04-08T23:46:24.980Z,40.40
2018-04-08T23:49:28.727Z,40.40
2018-04-08T23:52:31.922Z,40.00
2018-04-08T23:55:35.795Z,40.00
2018-04-08T23:58:38.922Z,39.90
